sensor_id;sensor_type;location;lat;lon;timestamp;P1;durP1;ratioP1;P2;durP2;ratioP2
56960;SDS011;42857;49.768;22.716;2022-08-03T00:01:34;13.95;;;12.43;;
56960;SDS011;42857;49.768;22.716;2022-08-03T00:04:00;14.13;;;12.73;;
56960;SDS011;42857;49.768;22.716;2022-08-03T00:06:26;13.82;;;11.73;;
56960;SDS011;42857;49.768;22.716;2022-08-03T00:08:52;12.93;;;11.13;;
56960;SDS011;42857;49.768;22.716;2022-08-03T00:11:18;13.30;;;11.90;;
56960;SDS011;42857;49.768;22.716;2022-08-03T00:13:45;17.30;;;11.48;;
56960;SDS011;42857;49.768;22.716;2022-08-03T00:16:11;13.60;;;11.50;;
56960;SDS011;42857;49.768;22.716;2022-08-03T00:18:37;13.50;;;12.20;;
56960;SDS011;42857;49.768;22.716;2022-08-03T00:21:03;13.43;;;12.10;;
56960;SDS011;42857;49.768;22.716;2022-08-03T00:23:29;13.30;;;11.88;;
56960;SDS011;42857;49.768;22.716;2022-08-03T00:25:55;12.15;;;10.90;;
56960;SDS011;42857;49.768;22.716;2022-08-03T00:28:21;12.30;;;11.10;;
56960;SDS011;42857;49.768;22.716;2022-08-03T00:30:47;12.68;;;11.40;;
56960;SDS011;42857;49.768;22.716;2022-08-03T00:33:13;15.38;;;11.23;;
56960;SDS011;42857;49.768;22.716;2022-08-03T00:35:40;12.48;;;11.27;;
56960;SDS011;42857;49.768;22.716;2022-08-03T00:38:05;12.52;;;11.32;;
56960;SDS011;42857;49.768;22.716;2022-08-03T00:40:32;13.38;;;10.95;;
56960;SDS011;42857;49.768;22.716;2022-08-03T00:42:58;13.00;;;11.30;;
56960;SDS011;42857;49.768;22.716;2022-08-03T00:45:35;15.27;;;11.35;;
56960;SDS011;42857;49.768;22.716;2022-08-03T00:48:01;12.88;;;11.48;;
56960;SDS011;42857;49.768;22.716;2022-08-03T00:50:28;12.23;;;11.02;;
56960;SDS011;42857;49.768;22.716;2022-08-03T00:52:55;12.10;;;10.98;;
56960;SDS011;42857;49.768;22.716;2022-08-03T00:55:21;16.35;;;12.30;;
56960;SDS011;42857;49.768;22.716;2022-08-03T00:57:47;15.23;;;11.82;;
56960;SDS011;42857;49.768;22.716;2022-08-03T01:00:15;22.70;;;12.32;;
56960;SDS011;42857;49.768;22.716;2022-08-03T01:02:41;23.70;;;11.05;;
56960;SDS011;42857;49.768;22.716;2022-08-03T01:05:08;17.13;;;12.50;;
56960;SDS011;42857;49.768;22.716;2022-08-03T01:07:36;15.50;;;12.07;;
56960;SDS011;42857;49.768;22.716;2022-08-03T01:10:18;12.63;;;11.43;;
56960;SDS011;42857;49.768;22.716;2022-08-03T01:15:28;11.80;;;10.68;;
56960;SDS011;42857;49.768;22.716;2022-08-03T01:18:07;16.55;;;11.27;;
56960;SDS011;42857;49.768;22.716;2022-08-03T01:20:36;15.60;;;11.85;;
56960;SDS011;42857;49.768;22.716;2022-08-03T01:30:42;18.75;;;12.60;;
56960;SDS011;42857;49.768;22.716;2022-08-03T01:33:14;15.57;;;12.63;;
56960;SDS011;42857;49.768;22.716;2022-08-03T01:35:43;19.40;;;12.68;;
56960;SDS011;42857;49.768;22.716;2022-08-03T01:38:12;16.08;;;13.13;;
56960;SDS011;42857;49.768;22.716;2022-08-03T01:40:39;14.73;;;12.73;;
56960;SDS011;42857;49.768;22.716;2022-08-03T01:43:06;18.33;;;12.80;;
56960;SDS011;42857;49.768;22.716;2022-08-03T01:45:33;17.02;;;12.63;;
56960;SDS011;42857;49.768;22.716;2022-08-03T01:48:01;14.65;;;11.73;;
56960;SDS011;42857;49.768;22.716;2022-08-03T01:50:28;14.10;;;12.48;;
56960;SDS011;42857;49.768;22.716;2022-08-03T01:52:54;12.55;;;11.25;;
56960;SDS011;42857;49.768;22.716;2022-08-03T01:55:21;13.20;;;11.80;;
56960;SDS011;42857;49.768;22.716;2022-08-03T01:57:48;12.13;;;10.43;;
56960;SDS011;42857;49.768;22.716;2022-08-03T02:00:15;12.35;;;11.10;;
56960;SDS011;42857;49.768;22.716;2022-08-03T02:02:41;13.38;;;11.48;;
56960;SDS011;42857;49.768;22.716;2022-08-03T02:05:08;13.00;;;11.05;;
56960;SDS011;42857;49.768;22.716;2022-08-03T02:07:35;13.05;;;11.70;;
56960;SDS011;42857;49.768;22.716;2022-08-03T02:10:03;15.88;;;12.13;;
56960;SDS011;42857;49.768;22.716;2022-08-03T02:12:29;14.10;;;12.27;;
56960;SDS011;42857;49.768;22.716;2022-08-03T02:14:56;13.63;;;12.20;;
56960;SDS011;42857;49.768;22.716;2022-08-03T02:17:24;16.13;;;12.77;;
56960;SDS011;42857;49.768;22.716;2022-08-03T02:19:50;19.70;;;13.93;;
56960;SDS011;42857;49.768;22.716;2022-08-03T02:22:17;18.88;;;12.90;;
56960;SDS011;42857;49.768;22.716;2022-08-03T02:24:43;15.40;;;13.55;;
56960;SDS011;42857;49.768;22.716;2022-08-03T02:27:10;17.25;;;12.82;;
56960;SDS011;42857;49.768;22.716;2022-08-03T02:29:37;15.95;;;14.23;;
56960;SDS011;42857;49.768;22.716;2022-08-03T02:32:04;15.65;;;13.57;;
56960;SDS011;42857;49.768;22.716;2022-08-03T02:34:30;16.60;;;12.68;;
56960;SDS011;42857;49.768;22.716;2022-08-03T02:36:58;19.88;;;14.82;;
56960;SDS011;42857;49.768;22.716;2022-08-03T02:39:25;41.90;;;14.43;;
56960;SDS011;42857;49.768;22.716;2022-08-03T02:41:53;47.70;;;14.88;;
56960;SDS011;42857;49.768;22.716;2022-08-03T02:44:26;26.40;;;13.32;;
56960;SDS011;42857;49.768;22.716;2022-08-03T02:46:53;35.20;;;13.82;;
56960;SDS011;42857;49.768;22.716;2022-08-03T02:49:20;26.48;;;12.02;;
56960;SDS011;42857;49.768;22.716;2022-08-03T02:51:47;20.65;;;12.30;;
56960;SDS011;42857;49.768;22.716;2022-08-03T02:54:14;22.00;;;11.98;;
56960;SDS011;42857;49.768;22.716;2022-08-03T02:56:42;30.40;;;12.13;;
56960;SDS011;42857;49.768;22.716;2022-08-03T02:59:08;40.38;;;11.63;;
56960;SDS011;42857;49.768;22.716;2022-08-03T03:01:35;31.58;;;12.23;;
56960;SDS011;42857;49.768;22.716;2022-08-03T03:04:02;37.08;;;11.45;;
56960;SDS011;42857;49.768;22.716;2022-08-03T03:06:28;28.85;;;11.15;;
56960;SDS011;42857;49.768;22.716;2022-08-03T03:08:55;19.45;;;12.23;;
56960;SDS011;42857;49.768;22.716;2022-08-03T03:11:21;22.35;;;11.82;;
56960;SDS011;42857;49.768;22.716;2022-08-03T03:13:48;15.73;;;11.60;;
56960;SDS011;42857;49.768;22.716;2022-08-03T03:16:14;15.40;;;12.68;;
56960;SDS011;42857;49.768;22.716;2022-08-03T03:18:41;14.55;;;12.82;;
56960;SDS011;42857;49.768;22.716;2022-08-03T03:21:08;14.93;;;13.32;;
56960;SDS011;42857;49.768;22.716;2022-08-03T03:23:38;14.32;;;12.82;;
56960;SDS011;42857;49.768;22.716;2022-08-03T03:26:04;14.52;;;13.05;;
56960;SDS011;42857;49.768;22.716;2022-08-03T03:28:31;17.88;;;13.77;;
56960;SDS011;42857;49.768;22.716;2022-08-03T03:30:57;18.27;;;15.10;;
56960;SDS011;42857;49.768;22.716;2022-08-03T03:33:23;19.75;;;16.60;;
56960;SDS011;42857;49.768;22.716;2022-08-03T03:35:49;21.13;;;16.90;;
56960;SDS011;42857;49.768;22.716;2022-08-03T03:38:16;19.73;;;16.58;;
56960;SDS011;42857;49.768;22.716;2022-08-03T03:40:42;19.05;;;15.23;;
56960;SDS011;42857;49.768;22.716;2022-08-03T03:43:09;18.40;;;14.70;;
56960;SDS011;42857;49.768;22.716;2022-08-03T03:45:35;19.52;;;14.93;;
56960;SDS011;42857;49.768;22.716;2022-08-03T03:48:05;15.55;;;13.77;;
56960;SDS011;42857;49.768;22.716;2022-08-03T03:50:32;17.40;;;14.13;;
56960;SDS011;42857;49.768;22.716;2022-08-03T03:52:58;14.85;;;13.00;;
56960;SDS011;42857;49.768;22.716;2022-08-03T03:55:24;15.25;;;12.90;;
56960;SDS011;42857;49.768;22.716;2022-08-03T03:57:50;24.70;;;12.65;;
56960;SDS011;42857;49.768;22.716;2022-08-03T04:00:17;15.20;;;12.60;;
56960;SDS011;42857;49.768;22.716;2022-08-03T04:02:45;31.67;;;14.02;;
56960;SDS011;42857;49.768;22.716;2022-08-03T04:05:12;14.13;;;12.00;;
56960;SDS011;42857;49.768;22.716;2022-08-03T04:07:57;13.75;;;12.30;;
56960;SDS011;42857;49.768;22.716;2022-08-03T04:10:44;31.20;;;13.77;;
56960;SDS011;42857;49.768;22.716;2022-08-03T04:13:24;14.85;;;13.25;;
56960;SDS011;42857;49.768;22.716;2022-08-03T04:15:52;19.35;;;15.00;;
56960;SDS011;42857;49.768;22.716;2022-08-03T04:18:18;17.48;;;14.32;;
56960;SDS011;42857;49.768;22.716;2022-08-03T04:20:45;21.88;;;14.60;;
56960;SDS011;42857;49.768;22.716;2022-08-03T04:23:13;53.20;;;13.43;;
56960;SDS011;42857;49.768;22.716;2022-08-03T04:25:41;22.42;;;12.50;;
56960;SDS011;42857;49.768;22.716;2022-08-03T04:28:08;20.98;;;12.55;;
56960;SDS011;42857;49.768;22.716;2022-08-03T04:30:35;18.08;;;10.70;;
56960;SDS011;42857;49.768;22.716;2022-08-03T04:33:02;26.02;;;11.98;;
56960;SDS011;42857;49.768;22.716;2022-08-03T04:35:28;14.55;;;11.27;;
56960;SDS011;42857;49.768;22.716;2022-08-03T04:37:56;13.48;;;12.18;;
56960;SDS011;42857;49.768;22.716;2022-08-03T04:40:35;15.23;;;12.45;;
56960;SDS011;42857;49.768;22.716;2022-08-03T04:43:01;13.48;;;12.07;;
56960;SDS011;42857;49.768;22.716;2022-08-03T04:45:27;13.63;;;11.50;;
56960;SDS011;42857;49.768;22.716;2022-08-03T04:47:55;11.98;;;10.77;;
56960;SDS011;42857;49.768;22.716;2022-08-03T04:50:21;18.58;;;11.63;;
56960;SDS011;42857;49.768;22.716;2022-08-03T04:52:48;15.70;;;12.73;;
56960;SDS011;42857;49.768;22.716;2022-08-03T04:55:26;12.18;;;10.70;;
56960;SDS011;42857;49.768;22.716;2022-08-03T04:57:52;16.80;;;13.23;;
56960;SDS011;42857;49.768;22.716;2022-08-03T05:00:18;11.88;;;10.30;;
56960;SDS011;42857;49.768;22.716;2022-08-03T05:02:44;11.77;;;10.60;;
56960;SDS011;42857;49.768;22.716;2022-08-03T05:05:10;13.23;;;10.85;;
56960;SDS011;42857;49.768;22.716;2022-08-03T05:07:36;12.65;;;10.27;;
56960;SDS011;42857;49.768;22.716;2022-08-03T05:10:03;13.32;;;11.25;;
56960;SDS011;42857;49.768;22.716;2022-08-03T05:12:30;16.58;;;12.13;;
56960;SDS011;42857;49.768;22.716;2022-08-03T05:14:56;14.50;;;12.18;;
56960;SDS011;42857;49.768;22.716;2022-08-03T05:17:22;12.43;;;11.13;;
56960;SDS011;42857;49.768;22.716;2022-08-03T05:19:48;14.50;;;12.32;;
56960;SDS011;42857;49.768;22.716;2022-08-03T05:22:14;15.63;;;11.80;;
56960;SDS011;42857;49.768;22.716;2022-08-03T05:24:40;13.38;;;11.10;;
56960;SDS011;42857;49.768;22.716;2022-08-03T05:27:06;12.05;;;10.75;;
56960;SDS011;42857;49.768;22.716;2022-08-03T05:29:32;13.20;;;11.10;;
56960;SDS011;42857;49.768;22.716;2022-08-03T05:31:58;12.52;;;10.73;;
56960;SDS011;42857;49.768;22.716;2022-08-03T05:34:25;12.98;;;11.68;;
56960;SDS011;42857;49.768;22.716;2022-08-03T05:36:51;13.43;;;11.77;;
56960;SDS011;42857;49.768;22.716;2022-08-03T05:39:17;12.88;;;11.57;;
56960;SDS011;42857;49.768;22.716;2022-08-03T05:41:43;12.70;;;11.25;;
56960;SDS011;42857;49.768;22.716;2022-08-03T05:44:09;13.35;;;12.02;;
56960;SDS011;42857;49.768;22.716;2022-08-03T05:46:35;14.90;;;11.63;;
56960;SDS011;42857;49.768;22.716;2022-08-03T05:49:01;13.50;;;12.10;;
56960;SDS011;42857;49.768;22.716;2022-08-03T05:51:27;13.65;;;12.18;;
56960;SDS011;42857;49.768;22.716;2022-08-03T05:53:53;14.68;;;13.15;;
56960;SDS011;42857;49.768;22.716;2022-08-03T05:56:22;14.70;;;13.02;;
56960;SDS011;42857;49.768;22.716;2022-08-03T05:58:52;15.55;;;12.65;;
56960;SDS011;42857;49.768;22.716;2022-08-03T06:01:18;14.80;;;13.30;;
56960;SDS011;42857;49.768;22.716;2022-08-03T06:03:48;14.52;;;13.05;;
56960;SDS011;42857;49.768;22.716;2022-08-03T06:06:17;14.88;;;13.27;;
56960;SDS011;42857;49.768;22.716;2022-08-03T06:08:44;15.80;;;14.20;;
56960;SDS011;42857;49.768;22.716;2022-08-03T06:11:10;15.13;;;13.52;;
56960;SDS011;42857;49.768;22.716;2022-08-03T06:13:36;15.35;;;13.82;;
56960;SDS011;42857;49.768;22.716;2022-08-03T06:16:03;15.90;;;14.30;;
56960;SDS011;42857;49.768;22.716;2022-08-03T06:18:29;15.85;;;14.25;;
56960;SDS011;42857;49.768;22.716;2022-08-03T06:20:55;16.67;;;14.88;;
56960;SDS011;42857;49.768;22.716;2022-08-03T06:23:21;16.33;;;14.60;;
56960;SDS011;42857;49.768;22.716;2022-08-03T06:25:47;16.23;;;14.63;;
56960;SDS011;42857;49.768;22.716;2022-08-03T06:28:13;15.18;;;13.68;;
56960;SDS011;42857;49.768;22.716;2022-08-03T06:30:39;17.17;;;14.27;;
56960;SDS011;42857;49.768;22.716;2022-08-03T06:33:05;15.82;;;13.75;;
56960;SDS011;42857;49.768;22.716;2022-08-03T06:35:31;15.63;;;14.02;;
56960;SDS011;42857;49.768;22.716;2022-08-03T06:37:58;15.02;;;13.52;;
56960;SDS011;42857;49.768;22.716;2022-08-03T06:40:24;15.30;;;13.60;;
56960;SDS011;42857;49.768;22.716;2022-08-03T06:42:55;14.80;;;13.40;;
56960;SDS011;42857;49.768;22.716;2022-08-03T06:45:21;15.90;;;14.25;;
56960;SDS011;42857;49.768;22.716;2022-08-03T06:47:58;14.77;;;13.27;;
56960;SDS011;42857;49.768;22.716;2022-08-03T06:50:24;20.08;;;13.50;;
56960;SDS011;42857;49.768;22.716;2022-08-03T06:52:50;15.57;;;13.93;;
56960;SDS011;42857;49.768;22.716;2022-08-03T06:55:16;13.13;;;11.82;;
56960;SDS011;42857;49.768;22.716;2022-08-03T06:57:42;12.98;;;11.77;;
56960;SDS011;42857;49.768;22.716;2022-08-03T07:00:08;14.80;;;13.00;;
56960;SDS011;42857;49.768;22.716;2022-08-03T07:02:35;12.10;;;10.90;;
56960;SDS011;42857;49.768;22.716;2022-08-03T07:05:01;12.95;;;11.57;;
56960;SDS011;42857;49.768;22.716;2022-08-03T07:07:27;11.63;;;10.55;;
56960;SDS011;42857;49.768;22.716;2022-08-03T07:09:53;9.63;;;8.73;;
56960;SDS011;42857;49.768;22.716;2022-08-03T07:12:19;9.25;;;8.35;;
56960;SDS011;42857;49.768;22.716;2022-08-03T07:14:45;7.97;;;7.25;;
56960;SDS011;42857;49.768;22.716;2022-08-03T07:17:11;10.25;;;8.70;;
56960;SDS011;42857;49.768;22.716;2022-08-03T07:19:37;8.52;;;7.72;;
56960;SDS011;42857;49.768;22.716;2022-08-03T07:22:03;9.18;;;8.38;;
56960;SDS011;42857;49.768;22.716;2022-08-03T07:24:30;7.85;;;7.15;;
56960;SDS011;42857;49.768;22.716;2022-08-03T07:26:56;7.35;;;6.65;;
56960;SDS011;42857;49.768;22.716;2022-08-03T07:29:22;9.65;;;6.45;;
56960;SDS011;42857;49.768;22.716;2022-08-03T07:31:48;7.53;;;6.60;;
56960;SDS011;42857;49.768;22.716;2022-08-03T07:34:14;8.38;;;7.38;;
56960;SDS011;42857;49.768;22.716;2022-08-03T07:36:40;8.00;;;7.22;;
56960;SDS011;42857;49.768;22.716;2022-08-03T07:39:06;8.65;;;7.75;;
56960;SDS011;42857;49.768;22.716;2022-08-03T07:41:32;9.70;;;8.70;;
56960;SDS011;42857;49.768;22.716;2022-08-03T07:43:57;9.27;;;8.48;;
56960;SDS011;42857;49.768;22.716;2022-08-03T07:46:23;7.82;;;7.00;;
56960;SDS011;42857;49.768;22.716;2022-08-03T07:48:49;10.75;;;7.32;;
56960;SDS011;42857;49.768;22.716;2022-08-03T07:51:16;7.30;;;6.50;;
56960;SDS011;42857;49.768;22.716;2022-08-03T07:53:42;7.40;;;6.70;;
56960;SDS011;42857;49.768;22.716;2022-08-03T07:56:08;8.05;;;6.55;;
56960;SDS011;42857;49.768;22.716;2022-08-03T07:58:34;5.10;;;3.95;;
56960;SDS011;42857;49.768;22.716;2022-08-03T08:01:01;5.20;;;4.70;;
56960;SDS011;42857;49.768;22.716;2022-08-03T08:03:26;4.57;;;4.18;;
56960;SDS011;42857;49.768;22.716;2022-08-03T08:05:52;5.65;;;5.03;;
56960;SDS011;42857;49.768;22.716;2022-08-03T08:08:19;4.28;;;3.88;;
56960;SDS011;42857;49.768;22.716;2022-08-03T08:10:45;4.85;;;4.45;;
56960;SDS011;42857;49.768;22.716;2022-08-03T08:13:11;5.90;;;4.68;;
56960;SDS011;42857;49.768;22.716;2022-08-03T08:15:37;4.65;;;4.15;;
56960;SDS011;42857;49.768;22.716;2022-08-03T08:18:03;6.40;;;4.90;;
56960;SDS011;42857;49.768;22.716;2022-08-03T08:20:30;4.70;;;4.30;;
56960;SDS011;42857;49.768;22.716;2022-08-03T08:22:57;4.63;;;4.18;;
56960;SDS011;42857;49.768;22.716;2022-08-03T08:25:24;8.20;;;4.57;;
56960;SDS011;42857;49.768;22.716;2022-08-03T08:27:50;4.35;;;3.95;;
56960;SDS011;42857;49.768;22.716;2022-08-03T08:30:17;5.03;;;4.53;;
56960;SDS011;42857;49.768;22.716;2022-08-03T08:32:43;4.93;;;4.53;;
56960;SDS011;42857;49.768;22.716;2022-08-03T08:35:10;5.97;;;4.32;;
56960;SDS011;42857;49.768;22.716;2022-08-03T08:37:36;5.28;;;4.18;;
56960;SDS011;42857;49.768;22.716;2022-08-03T08:40:02;5.95;;;3.95;;
56960;SDS011;42857;49.768;22.716;2022-08-03T08:42:29;6.68;;;4.05;;
56960;SDS011;42857;49.768;22.716;2022-08-03T08:44:56;5.55;;;4.13;;
56960;SDS011;42857;49.768;22.716;2022-08-03T08:47:25;6.43;;;3.63;;
56960;SDS011;42857;49.768;22.716;2022-08-03T08:49:53;3.95;;;2.97;;
56960;SDS011;42857;49.768;22.716;2022-08-03T08:52:21;4.47;;;4.07;;
56960;SDS011;42857;49.768;22.716;2022-08-03T08:54:48;4.85;;;4.18;;
56960;SDS011;42857;49.768;22.716;2022-08-03T08:57:15;4.53;;;3.55;;
56960;SDS011;42857;49.768;22.716;2022-08-03T08:59:42;3.83;;;3.00;;
56960;SDS011;42857;49.768;22.716;2022-08-03T09:02:08;2.60;;;2.40;;
56960;SDS011;42857;49.768;22.716;2022-08-03T09:04:35;4.05;;;3.60;;
56960;SDS011;42857;49.768;22.716;2022-08-03T09:07:03;3.78;;;3.47;;
56960;SDS011;42857;49.768;22.716;2022-08-03T09:09:30;3.72;;;3.25;;
56960;SDS011;42857;49.768;22.716;2022-08-03T09:11:56;4.13;;;2.83;;
56960;SDS011;42857;49.768;22.716;2022-08-03T09:14:22;4.40;;;3.00;;
56960;SDS011;42857;49.768;22.716;2022-08-03T09:16:55;4.00;;;3.60;;
56960;SDS011;42857;49.768;22.716;2022-08-03T09:19:23;3.53;;;2.65;;
56960;SDS011;42857;49.768;22.716;2022-08-03T09:22:06;5.25;;;3.35;;
56960;SDS011;42857;49.768;22.716;2022-08-03T09:24:33;3.50;;;3.20;;
56960;SDS011;42857;49.768;22.716;2022-08-03T09:26:59;4.13;;;3.72;;
56960;SDS011;42857;49.768;22.716;2022-08-03T09:29:25;3.42;;;3.13;;
56960;SDS011;42857;49.768;22.716;2022-08-03T09:31:58;3.72;;;3.40;;
56960;SDS011;42857;49.768;22.716;2022-08-03T09:34:25;3.28;;;2.95;;
56960;SDS011;42857;49.768;22.716;2022-08-03T09:36:52;3.30;;;3.10;;
56960;SDS011;42857;49.768;22.716;2022-08-03T09:39:22;10.85;;;7.35;;
56960;SDS011;42857;49.768;22.716;2022-08-03T09:42:05;11.45;;;6.65;;
56960;SDS011;42857;49.768;22.716;2022-08-03T09:44:35;3.50;;;3.00;;
56960;SDS011;42857;49.768;22.716;2022-08-03T09:47:02;3.40;;;2.88;;
56960;SDS011;42857;49.768;22.716;2022-08-03T09:49:28;2.97;;;2.75;;
56960;SDS011;42857;49.768;22.716;2022-08-03T09:51:54;5.18;;;3.00;;
56960;SDS011;42857;49.768;22.716;2022-08-03T09:54:27;3.33;;;2.75;;
56960;SDS011;42857;49.768;22.716;2022-08-03T09:56:53;3.78;;;3.03;;
56960;SDS011;42857;49.768;22.716;2022-08-03T09:59:27;4.30;;;3.78;;
56960;SDS011;42857;49.768;22.716;2022-08-03T10:01:54;4.15;;;2.83;;
56960;SDS011;42857;49.768;22.716;2022-08-03T10:04:21;2.80;;;2.58;;
56960;SDS011;42857;49.768;22.716;2022-08-03T10:07:06;3.22;;;2.92;;
56960;SDS011;42857;49.768;22.716;2022-08-03T10:09:33;3.38;;;3.08;;
56960;SDS011;42857;49.768;22.716;2022-08-03T10:12:12;3.17;;;2.85;;
56960;SDS011;42857;49.768;22.716;2022-08-03T10:14:38;3.03;;;2.83;;
56960;SDS011;42857;49.768;22.716;2022-08-03T10:17:05;3.40;;;2.50;;
56960;SDS011;42857;49.768;22.716;2022-08-03T10:19:32;2.50;;;2.30;;
56960;SDS011;42857;49.768;22.716;2022-08-03T10:22:01;2.72;;;2.38;;
56960;SDS011;42857;49.768;22.716;2022-08-03T10:24:28;2.53;;;2.33;;
56960;SDS011;42857;49.768;22.716;2022-08-03T10:27:00;3.60;;;2.50;;
56960;SDS011;42857;49.768;22.716;2022-08-03T10:29:27;3.25;;;2.95;;
56960;SDS011;42857;49.768;22.716;2022-08-03T10:31:55;3.83;;;2.28;;
56960;SDS011;42857;49.768;22.716;2022-08-03T10:36:49;2.60;;;2.40;;
56960;SDS011;42857;49.768;22.716;2022-08-03T10:39:17;2.60;;;2.40;;
56960;SDS011;42857;49.768;22.716;2022-08-03T10:41:44;2.67;;;2.20;;
56960;SDS011;42857;49.768;22.716;2022-08-03T10:44:18;3.25;;;2.22;;
56960;SDS011;42857;49.768;22.716;2022-08-03T10:46:44;3.13;;;2.38;;
56960;SDS011;42857;49.768;22.716;2022-08-03T10:49:15;3.67;;;2.53;;
56960;SDS011;42857;49.768;22.716;2022-08-03T10:51:41;2.78;;;2.58;;
56960;SDS011;42857;49.768;22.716;2022-08-03T10:56:53;2.42;;;2.22;;
56960;SDS011;42857;49.768;22.716;2022-08-03T11:02:10;2.58;;;2.38;;
56960;SDS011;42857;49.768;22.716;2022-08-03T11:04:37;4.13;;;2.40;;
56960;SDS011;42857;49.768;22.716;2022-08-03T11:09:42;3.22;;;2.20;;
56960;SDS011;42857;49.768;22.716;2022-08-03T11:12:21;3.22;;;2.55;;
56960;SDS011;42857;49.768;22.716;2022-08-03T11:14:48;2.30;;;2.10;;
56960;SDS011;42857;49.768;22.716;2022-08-03T11:17:14;2.78;;;2.40;;
56960;SDS011;42857;49.768;22.716;2022-08-03T11:22:09;2.70;;;2.50;;
56960;SDS011;42857;49.768;22.716;2022-08-03T11:27:19;2.63;;;2.30;;
56960;SDS011;42857;49.768;22.716;2022-08-03T11:43:02;4.00;;;2.80;;
56960;SDS011;42857;49.768;22.716;2022-08-03T11:45:29;2.65;;;2.30;;
56960;SDS011;42857;49.768;22.716;2022-08-03T11:47:55;4.13;;;2.50;;
56960;SDS011;42857;49.768;22.716;2022-08-03T11:50:25;2.58;;;2.38;;
56960;SDS011;42857;49.768;22.716;2022-08-03T11:52:51;2.97;;;2.67;;
56960;SDS011;42857;49.768;22.716;2022-08-03T11:55:17;2.72;;;2.50;;
56960;SDS011;42857;49.768;22.716;2022-08-03T12:00:21;4.25;;;2.63;;
56960;SDS011;42857;49.768;22.716;2022-08-03T12:02:57;3.00;;;2.30;;
56960;SDS011;42857;49.768;22.716;2022-08-03T12:05:33;2.75;;;2.55;;
56960;SDS011;42857;49.768;22.716;2022-08-03T12:07:59;2.58;;;2.38;;
56960;SDS011;42857;49.768;22.716;2022-08-03T12:10:25;4.15;;;2.35;;
56960;SDS011;42857;49.768;22.716;2022-08-03T12:12:55;5.55;;;2.50;;
56960;SDS011;42857;49.768;22.716;2022-08-03T12:15:25;3.65;;;2.70;;
56960;SDS011;42857;49.768;22.716;2022-08-03T12:17:51;2.63;;;2.40;;
56960;SDS011;42857;49.768;22.716;2022-08-03T12:20:25;3.30;;;2.50;;
56960;SDS011;42857;49.768;22.716;2022-08-03T12:22:51;2.28;;;2.08;;
56960;SDS011;42857;49.768;22.716;2022-08-03T12:25:21;2.95;;;2.40;;
56960;SDS011;42857;49.768;22.716;2022-08-03T12:27:48;2.63;;;2.42;;
56960;SDS011;42857;49.768;22.716;2022-08-03T12:30:14;3.03;;;2.78;;
56960;SDS011;42857;49.768;22.716;2022-08-03T12:32:41;2.72;;;2.47;;
56960;SDS011;42857;49.768;22.716;2022-08-03T12:35:08;3.60;;;2.65;;
56960;SDS011;42857;49.768;22.716;2022-08-03T12:37:34;2.85;;;2.65;;
56960;SDS011;42857;49.768;22.716;2022-08-03T12:40:01;2.88;;;2.67;;
56960;SDS011;42857;49.768;22.716;2022-08-03T12:42:33;3.35;;;2.85;;
56960;SDS011;42857;49.768;22.716;2022-08-03T12:44:59;3.63;;;2.88;;
56960;SDS011;42857;49.768;22.716;2022-08-03T12:47:55;3.60;;;3.00;;
56960;SDS011;42857;49.768;22.716;2022-08-03T12:50:27;7.53;;;5.10;;
56960;SDS011;42857;49.768;22.716;2022-08-03T12:52:53;3.40;;;2.97;;
56960;SDS011;42857;49.768;22.716;2022-08-03T12:55:20;3.70;;;2.65;;
56960;SDS011;42857;49.768;22.716;2022-08-03T12:57:46;3.92;;;2.78;;
56960;SDS011;42857;49.768;22.716;2022-08-03T13:00:13;2.75;;;2.50;;
56960;SDS011;42857;49.768;22.716;2022-08-03T13:02:39;3.10;;;2.75;;
56960;SDS011;42857;49.768;22.716;2022-08-03T13:05:09;2.95;;;2.65;;
56960;SDS011;42857;49.768;22.716;2022-08-03T13:07:42;4.35;;;2.47;;
56960;SDS011;42857;49.768;22.716;2022-08-03T13:10:08;2.85;;;2.53;;
56960;SDS011;42857;49.768;22.716;2022-08-03T13:12:47;3.08;;;2.45;;
56960;SDS011;42857;49.768;22.716;2022-08-03T13:15:14;2.60;;;2.40;;
56960;SDS011;42857;49.768;22.716;2022-08-03T13:17:40;3.00;;;2.40;;
56960;SDS011;42857;49.768;22.716;2022-08-03T13:20:06;2.35;;;2.25;;
56960;SDS011;42857;49.768;22.716;2022-08-03T13:22:32;2.67;;;2.35;;
56960;SDS011;42857;49.768;22.716;2022-08-03T13:24:58;2.80;;;2.60;;
56960;SDS011;42857;49.768;22.716;2022-08-03T13:27:28;3.85;;;2.70;;
56960;SDS011;42857;49.768;22.716;2022-08-03T13:29:55;2.50;;;2.25;;
56960;SDS011;42857;49.768;22.716;2022-08-03T13:32:21;2.55;;;2.35;;
56960;SDS011;42857;49.768;22.716;2022-08-03T13:34:47;3.58;;;2.63;;
56960;SDS011;42857;49.768;22.716;2022-08-03T13:37:13;2.53;;;2.33;;
56960;SDS011;42857;49.768;22.716;2022-08-03T13:39:39;3.15;;;2.38;;
56960;SDS011;42857;49.768;22.716;2022-08-03T13:42:05;2.85;;;2.33;;
56960;SDS011;42857;49.768;22.716;2022-08-03T13:44:32;2.17;;;2.03;;
56960;SDS011;42857;49.768;22.716;2022-08-03T13:46:58;3.58;;;2.42;;
56960;SDS011;42857;49.768;22.716;2022-08-03T13:49:25;2.55;;;2.03;;
56960;SDS011;42857;49.768;22.716;2022-08-03T13:51:51;2.30;;;2.10;;
56960;SDS011;42857;49.768;22.716;2022-08-03T13:54:17;5.57;;;3.50;;
56960;SDS011;42857;49.768;22.716;2022-08-03T13:56:43;95.43;;;58.03;;
56960;SDS011;42857;49.768;22.716;2022-08-03T13:59:16;7.60;;;4.15;;
56960;SDS011;42857;49.768;22.716;2022-08-03T14:01:42;5.68;;;3.10;;
56960;SDS011;42857;49.768;22.716;2022-08-03T14:04:08;2.75;;;2.35;;
56960;SDS011;42857;49.768;22.716;2022-08-03T14:06:34;3.22;;;2.25;;
56960;SDS011;42857;49.768;22.716;2022-08-03T14:09:00;2.25;;;2.05;;
56960;SDS011;42857;49.768;22.716;2022-08-03T14:11:26;2.97;;;2.30;;
56960;SDS011;42857;49.768;22.716;2022-08-03T14:13:52;4.35;;;2.35;;
56960;SDS011;42857;49.768;22.716;2022-08-03T14:16:18;2.90;;;2.70;;
56960;SDS011;42857;49.768;22.716;2022-08-03T14:18:44;2.65;;;2.45;;
56960;SDS011;42857;49.768;22.716;2022-08-03T14:21:10;2.85;;;2.50;;
56960;SDS011;42857;49.768;22.716;2022-08-03T14:23:37;2.92;;;2.55;;
56960;SDS011;42857;49.768;22.716;2022-08-03T14:26:06;3.47;;;2.88;;
56960;SDS011;42857;49.768;22.716;2022-08-03T14:28:32;2.65;;;2.42;;
56960;SDS011;42857;49.768;22.716;2022-08-03T14:30:58;2.80;;;2.60;;
56960;SDS011;42857;49.768;22.716;2022-08-03T14:33:24;3.13;;;2.78;;
56960;SDS011;42857;49.768;22.716;2022-08-03T14:35:52;3.00;;;2.17;;
56960;SDS011;42857;49.768;22.716;2022-08-03T14:38:18;2.60;;;2.40;;
56960;SDS011;42857;49.768;22.716;2022-08-03T14:40:44;4.75;;;2.58;;
56960;SDS011;42857;49.768;22.716;2022-08-03T14:43:10;2.30;;;2.10;;
56960;SDS011;42857;49.768;22.716;2022-08-03T14:45:37;2.30;;;2.10;;
56960;SDS011;42857;49.768;22.716;2022-08-03T14:48:03;2.60;;;2.40;;
56960;SDS011;42857;49.768;22.716;2022-08-03T14:50:29;4.80;;;2.80;;
56960;SDS011;42857;49.768;22.716;2022-08-03T14:52:55;2.53;;;2.33;;
56960;SDS011;42857;49.768;22.716;2022-08-03T14:55:21;3.75;;;2.35;;
56960;SDS011;42857;49.768;22.716;2022-08-03T14:57:47;2.72;;;2.17;;
56960;SDS011;42857;49.768;22.716;2022-08-03T15:00:13;2.45;;;2.28;;
56960;SDS011;42857;49.768;22.716;2022-08-03T15:02:40;2.63;;;2.20;;
56960;SDS011;42857;49.768;22.716;2022-08-03T15:05:06;4.25;;;2.05;;